Terminal Aerodrome Forecast
Issued by NWS San Angelo, TX

Home | Current Version | Previous Version | Text Only | Print | Product List | Glossary On
Versions: 1 2 3 4 5 6 7 8 9 10 11 12 13 14
000
FTUS44 KSJT 191731
TAFABI
TAF
KABI 191731Z 1918/2018 09011G17KT P6SM BKN250
     FM200000 09010KT P6SM OVC250
     FM201500 14018G24KT P6SM OVC050=

USA.gov is the U.S. government's official web portal to all federal, state and local government web resources and services.